Time;durP1;ratioP1;P1;durP2;ratioP2;P2;SDS_P1;SDS_P2;PMS_P1;PMS_P2;Temp;Humidity;BMP_temperature;BMP_pressure;BME280_temperature;BME280_humidity;BME280_pressure;Samples;Min_cycle;Max_cycle;Signal;HPM_P1;HPM_P2
2022/05/20 00:02:03;;;;;;;6.68;3.90;;;;;19.30;102062.00;;;;5083832;28;20191;-79
2022/05/20 00:04:31;;;;;;;4.47;3.38;;;;;19.30;102071.00;;;;5080034;28;20195;-79
2022/05/20 00:06:58;;;;;;;5.72;4.13;;;;;19.30;102067.00;;;;5075780;28;20660;-79
2022/05/20 00:09:25;;;;;;;6.97;4.20;;;;;19.20;102069.00;;;;5085979;28;20198;-79
2022/05/20 00:11:52;;;;;;;7.18;4.63;;;;;19.20;102070.00;;;;5078770;28;20202;-78
2022/05/20 00:14:20;;;;;;;7.30;4.22;;;;;19.20;102069.00;;;;5081590;28;20199;-79
2022/05/20 00:16:47;;;;;;;5.75;4.55;;;;;19.20;102068.00;;;;5087256;28;20230;-79
2022/05/20 00:19:16;;;;;;;7.20;4.18;;;;;19.10;102067.00;;;;5083069;28;20218;-79
2022/05/20 00:21:43;;;;;;;5.35;3.92;;;;;19.10;102069.00;;;;5084111;28;20190;-78
2022/05/20 00:24:11;;;;;;;7.78;4.15;;;;;19.10;102060.00;;;;5085120;28;20236;-79
2022/05/20 00:26:38;;;;;;;5.90;3.80;;;;;19.10;102064.00;;;;5079254;28;20625;-78
2022/05/20 00:29:05;;;;;;;4.20;3.72;;;;;19.10;102054.00;;;;5085698;28;20224;-79
2022/05/20 00:31:33;;;;;;;6.40;4.28;;;;;19.00;102072.00;;;;5090136;28;20623;-79
2022/05/20 00:34:00;;;;;;;6.78;4.45;;;;;19.00;102076.00;;;;5082989;28;20210;-79
2022/05/20 00:36:29;;;;;;;5.45;3.85;;;;;19.00;102059.00;;;;5084761;28;20934;-79
2022/05/20 00:38:56;;;;;;;5.68;4.25;;;;;19.00;102059.00;;;;5089229;28;20210;-79
2022/05/20 00:41:23;;;;;;;5.65;4.03;;;;;18.90;102062.00;;;;5087725;28;20230;-78
2022/05/20 00:43:52;;;;;;;7.10;4.38;;;;;18.90;102058.00;;;;5081833;28;20207;-78
2022/05/20 00:46:22;;;;;;;5.90;4.40;;;;;18.90;102049.00;;;;5087246;28;20625;-79
2022/05/20 00:48:56;;;;;;;6.93;4.72;;;;;18.90;102039.00;;;;5089975;28;20206;-79
2022/05/20 00:51:29;;;;;;;7.20;5.00;;;;;18.90;102060.00;;;;5087646;28;20197;-79
2022/05/20 00:54:01;;;;;;;6.07;4.75;;;;;18.80;102054.00;;;;5083106;28;20195;-79
2022/05/20 00:56:33;;;;;;;5.35;4.82;;;;;18.80;102051.00;;;;5081986;28;20225;-79
2022/05/20 00:59:01;;;;;;;6.97;4.82;;;;;18.80;102050.00;;;;5081666;28;20209;-79
2022/05/20 01:01:29;;;;;;;7.45;5.63;;;;;18.80;102045.00;;;;5088097;28;20205;-78
2022/05/20 01:03:58;;;;;;;5.93;4.88;;;;;18.80;102037.00;;;;5080214;28;20761;-79
2022/05/20 01:06:29;;;;;;;6.63;4.88;;;;;18.80;102035.00;;;;5073710;28;20286;-79
2022/05/20 01:08:56;;;;;;;7.82;4.90;;;;;18.80;102034.00;;;;5081560;28;20202;-78
2022/05/20 01:11:24;;;;;;;5.75;4.85;;;;;18.70;102038.00;;;;5084080;28;20217;-79
2022/05/20 01:13:53;;;;;;;6.97;5.13;;;;;18.70;102035.00;;;;5082923;28;20568;-78
2022/05/20 01:16:21;;;;;;;6.35;4.68;;;;;18.70;102039.00;;;;5080758;28;20201;-79
2022/05/20 01:18:53;;;;;;;6.75;5.55;;;;;18.70;102036.00;;;;5077235;28;20413;-79
2022/05/20 01:21:20;;;;;;;5.20;4.20;;;;;18.70;102035.00;;;;5082584;28;20207;-78
2022/05/20 01:23:50;;;;;;;7.68;4.93;;;;;18.60;102032.00;;;;5084373;28;20297;-79
2022/05/20 01:26:17;;;;;;;5.80;5.13;;;;;18.70;102026.00;;;;5089233;28;20186;-79
2022/05/20 01:28:44;;;;;;;6.97;5.68;;;;;18.60;102018.00;;;;5076856;28;20195;-79
2022/05/20 01:31:14;;;;;;;6.18;5.05;;;;;18.60;102016.00;;;;5087865;28;20198;-78
2022/05/20 01:33:43;;;;;;;7.70;5.00;;;;;18.60;102014.00;;;;5089804;28;20202;-79
2022/05/20 01:36:13;;;;;;;5.65;4.93;;;;;18.60;102011.00;;;;5086501;28;20198;-79
2022/05/20 01:38:40;;;;;;;5.47;4.97;;;;;18.60;102007.00;;;;5089226;28;20767;-78
2022/05/20 01:41:11;;;;;;;7.40;5.30;;;;;18.50;102007.00;;;;5085063;28;20222;-78
2022/05/20 01:43:52;;;;;;;6.07;5.40;;;;;18.50;101990.00;;;;5089284;28;20694;-78
2022/05/20 01:46:34;;;;;;;5.93;5.00;;;;;18.40;101997.00;;;;5086307;28;20209;-78
2022/05/20 01:49:19;;;;;;;6.80;5.22;;;;;18.50;101995.00;;;;5083530;28;20202;-78
2022/05/20 01:51:52;;;;;;;9.15;5.45;;;;;18.50;101992.00;;;;5074377;28;20206;-78
2022/05/20 01:54:26;;;;;;;7.05;5.72;;;;;18.50;101981.00;;;;5077863;28;20240;-79
2022/05/20 01:56:59;;;;;;;6.05;5.35;;;;;18.50;101980.00;;;;5088872;28;20218;-78
2022/05/20 01:59:31;;;;;;;8.90;5.22;;;;;18.40;101980.00;;;;5081207;28;20221;-78
2022/05/20 02:02:03;;;;;;;5.65;4.80;;;;;18.40;101972.00;;;;5079344;28;20198;-78
2022/05/20 02:04:34;;;;;;;7.45;5.68;;;;;18.40;101964.00;;;;5088781;28;20199;-78
2022/05/20 02:07:07;;;;;;;6.75;5.80;;;;;18.40;101971.00;;;;5081154;28;20290;-78
2022/05/20 02:09:40;;;;;;;6.57;5.28;;;;;18.40;101980.00;;;;5081895;28;20199;-78
2022/05/20 02:12:13;;;;;;;7.25;4.85;;;;;18.40;101975.00;;;;5085376;28;20197;-78
2022/05/20 02:14:45;;;;;;;5.32;4.47;;;;;18.40;101976.00;;;;5080192;28;20672;-78
2022/05/20 02:17:18;;;;;;;6.53;5.20;;;;;18.40;101981.00;;;;5087492;28;20617;-78
2022/05/20 02:19:52;;;;;;;5.82;4.88;;;;;18.30;101980.00;;;;5086269;28;20194;-78
2022/05/20 02:22:24;;;;;;;9.60;5.47;;;;;18.40;101974.00;;;;5076956;28;20190;-78
2022/05/20 02:24:52;;;;;;;5.47;4.93;;;;;18.30;101979.00;;;;5078385;28;20194;-78
2022/05/20 02:27:25;;;;;;;6.07;5.47;;;;;18.30;101977.00;;;;5087379;28;20201;-78
2022/05/20 02:29:56;;;;;;;6.53;5.93;;;;;18.30;101970.00;;;;5086398;28;20675;-78
2022/05/20 02:32:29;;;;;;;5.85;5.00;;;;;18.30;101969.00;;;;5078084;28;20564;-78
2022/05/20 02:34:56;;;;;;;5.65;5.07;;;;;18.30;101978.00;;;;5085521;28;20196;-78
2022/05/20 02:37:26;;;;;;;6.32;5.43;;;;;18.30;101971.00;;;;5085079;28;20591;-78
2022/05/20 02:39:54;;;;;;;6.68;5.38;;;;;18.30;101971.00;;;;5072914;28;20234;-78
2022/05/20 02:42:23;;;;;;;5.25;4.75;;;;;18.20;101967.00;;;;5078792;28;20286;-78
2022/05/20 02:44:50;;;;;;;5.80;4.70;;;;;18.20;101966.00;;;;5083033;28;20199;-78
2022/05/20 02:47:18;;;;;;;6.40;5.43;;;;;18.20;101968.00;;;;5080094;28;20205;-78
2022/05/20 02:49:45;;;;;;;7.28;5.35;;;;;18.20;101969.00;;;;5081370;28;20193;-78
2022/05/20 02:52:13;;;;;;;5.72;4.97;;;;;18.20;101967.00;;;;5082184;28;20245;-78
2022/05/20 02:54:40;;;;;;;7.22;4.70;;;;;18.20;101972.00;;;;5087559;28;20226;-78
2022/05/20 02:57:07;;;;;;;5.90;5.28;;;;;18.20;101967.00;;;;5081832;28;20210;-78
2022/05/20 03:05:06;;;;;;;17.38;5.43;;;;;18.10;101958.00;;;;5088302;28;20197;-78
2022/05/20 03:07:36;;;;;;;6.55;4.70;;;;;18.10;101960.00;;;;5078360;28;20199;-78
2022/05/20 03:10:04;;;;;;;7.18;4.63;;;;;18.10;101961.00;;;;5085328;28;20206;-78
2022/05/20 03:12:32;;;;;;;7.20;5.25;;;;;18.10;101960.00;;;;5076766;28;20209;-78
2022/05/20 03:15:03;;;;;;;5.18;4.47;;;;;18.00;101963.00;;;;5088432;28;20626;-78
2022/05/20 03:17:30;;;;;;;8.57;5.03;;;;;18.00;101952.00;;;;5077608;28;20190;-78
2022/05/20 03:19:58;;;;;;;6.18;4.55;;;;;18.00;101960.00;;;;5085415;28;21261;-79
2022/05/20 03:22:25;;;;;;;6.30;5.45;;;;;18.00;101960.00;;;;5087568;28;20198;-78
2022/05/20 03:24:53;;;;;;;7.35;4.88;;;;;17.90;101958.00;;;;5085388;28;20206;-78
2022/05/20 03:27:20;;;;;;;5.70;5.13;;;;;17.90;101959.00;;;;5080894;28;20672;-78
2022/05/20 03:29:48;;;;;;;5.13;4.45;;;;;17.90;101963.00;;;;5086855;28;20676;-78
2022/05/20 03:32:16;;;;;;;5.13;4.55;;;;;17.80;101958.00;;;;5085495;28;20281;-78
2022/05/20 03:34:44;;;;;;;5.90;4.68;;;;;17.80;101963.00;;;;5072225;28;20237;-78
2022/05/20 03:37:11;;;;;;;5.50;4.65;;;;;17.80;101959.00;;;;5078617;28;20198;-78
2022/05/20 03:39:38;;;;;;;6.22;4.13;;;;;17.80;101977.00;;;;5080994;28;20268;-78
2022/05/20 03:42:06;;;;;;;5.40;4.90;;;;;17.80;101979.00;;;;5074838;28;20203;-78
2022/05/20 03:44:34;;;;;;;7.70;5.35;;;;;17.80;101983.00;;;;5081904;28;20690;-78
2022/05/20 03:47:02;;;;;;;5.85;4.47;;;;;17.80;101985.00;;;;5083852;28;20209;-78
2022/05/20 03:49:31;;;;;;;5.57;4.22;;;;;17.70;101988.00;;;;5084967;28;20202;-78
2022/05/20 03:51:59;;;;;;;5.38;4.18;;;;;17.70;101991.00;;;;5090008;28;20213;-78
2022/05/20 03:54:30;;;;;;;4.72;4.07;;;;;17.70;101985.00;;;;5091371;28;20225;-78
2022/05/20 03:56:57;;;;;;;7.18;4.68;;;;;17.70;101992.00;;;;5088965;28;20641;-78
2022/05/20 03:59:24;;;;;;;5.07;4.57;;;;;17.70;101985.00;;;;5078788;28;20702;-78
2022/05/20 04:01:57;;;;;;;5.07;4.00;;;;;17.70;101981.00;;;;5090035;28;20705;-78
2022/05/20 04:04:27;;;;;;;5.07;4.57;;;;;17.70;101979.00;;;;5084095;28;20695;-78
2022/05/20 04:06:56;;;;;;;4.93;4.43;;;;;17.70;101982.00;;;;5088452;28;20201;-78
2022/05/20 04:09:23;;;;;;;5.25;4.20;;;;;17.70;101968.00;;;;5078202;28;20202;-78
2022/05/20 04:11:53;;;;;;;9.13;5.47;;;;;17.70;101978.00;;;;5086565;28;20255;-78
2022/05/20 04:14:20;;;;;;;8.93;5.10;;;;;17.70;101974.00;;;;5079494;28;20268;-79
2022/05/20 04:16:48;;;;;;;6.85;5.47;;;;;17.70;101965.00;;;;5082929;28;20202;-78
2022/05/20 04:19:15;;;;;;;6.15;5.32;;;;;17.70;101958.00;;;;5084197;28;20222;-78
2022/05/20 04:21:42;;;;;;;7.13;5.55;;;;;17.70;101955.00;;;;5086659;28;20193;-78
2022/05/20 04:24:11;;;;;;;6.15;4.97;;;;;17.70;101946.00;;;;5088710;28;20342;-78
2022/05/20 04:26:38;;;;;;;5.25;4.57;;;;;17.70;101943.00;;;;5074855;28;20583;-78
2022/05/20 04:29:06;;;;;;;7.07;4.80;;;;;17.70;101948.00;;;;5074331;28;20202;-78
2022/05/20 04:31:33;;;;;;;8.85;6.05;;;;;17.70;101938.00;;;;5091509;28;20251;-78
2022/05/20 04:34:01;;;;;;;6.18;4.97;;;;;17.80;101936.00;;;;5084111;28;20246;-78
2022/05/20 04:36:28;;;;;;;9.48;6.88;;;;;17.80;101936.00;;;;5083142;28;20198;-78
2022/05/20 04:38:55;;;;;;;6.35;5.63;;;;;17.80;101954.00;;;;5075168;28;20222;-78
2022/05/20 04:47:00;;;;;;;8.70;6.70;;;;;17.90;101948.00;;;;5075665;28;20208;-78
2022/05/20 04:49:28;;;;;;;8.75;6.88;;;;;17.90;101953.00;;;;5087273;28;20187;-79
2022/05/20 04:51:56;;;;;;;7.55;6.20;;;;;18.00;101965.00;;;;5085189;28;20190;-78
2022/05/20 04:57:18;;;;;;;10.50;7.65;;;;;18.10;101971.00;;;;5072408;28;20418;-78
2022/05/20 04:59:45;;;;;;;10.63;8.75;;;;;18.10;101972.00;;;;5089019;28;20214;-79
2022/05/20 05:02:13;;;;;;;7.95;7.10;;;;;18.20;101973.00;;;;5079298;28;20198;-79
2022/05/20 05:04:41;;;;;;;11.27;7.60;;;;;18.20;101980.00;;;;5084111;28;20194;-79
2022/05/20 05:07:09;;;;;;;10.45;7.63;;;;;18.30;101977.00;;;;5083619;28;20210;-80
2022/05/20 05:09:37;;;;;;;8.48;7.22;;;;;18.30;101980.00;;;;5088569;28;20205;-79
2022/05/20 05:12:05;;;;;;;7.55;6.80;;;;;18.30;101971.00;;;;5073046;28;20195;-78
2022/05/20 05:14:38;;;;;;;27.95;7.70;;;;;18.30;101968.00;;;;5077720;28;20240;-79
2022/05/20 05:17:08;;;;;;;8.40;7.53;;;;;18.40;101971.00;;;;5088836;28;20255;-79
2022/05/20 05:19:37;;;;;;;8.52;7.65;;;;;18.40;101970.00;;;;5083174;28;20214;-79
2022/05/20 05:22:06;;;;;;;8.88;7.32;;;;;18.50;101979.00;;;;5081086;28;20218;-79
2022/05/20 05:24:34;;;;;;;8.23;6.88;;;;;18.50;101977.00;;;;5089696;28;20232;-79
2022/05/20 05:27:06;;;;;;;8.13;7.35;;;;;18.60;101977.00;;;;5089224;28;20202;-79
2022/05/20 05:29:39;;;;;;;8.55;7.70;;;;;18.60;101981.00;;;;5074069;28;20203;-80
2022/05/20 05:32:07;;;;;;;8.70;7.80;;;;;18.70;101980.00;;;;5075198;28;20222;-80
2022/05/20 05:34:36;;;;;;;8.63;7.70;;;;;18.70;101976.00;;;;5079892;28;20209;-79
2022/05/20 05:37:04;;;;;;;9.93;8.35;;;;;18.80;101978.00;;;;5058027;28;20202;-78
2022/05/20 05:39:32;;;;;;;8.87;7.50;;;;;18.90;101971.00;;;;5036286;28;1043926;-78
2022/05/20 05:42:01;;;;;;;9.60;8.50;;;;;18.90;101967.00;;;;5071345;28;20209;-79
2022/05/20 05:44:28;;;;;;;11.82;8.90;;;;;19.00;101969.00;;;;5088968;28;20230;-79
2022/05/20 05:46:57;;;;;;;10.05;8.07;;;;;19.00;101973.00;;;;5089867;28;20194;-79
2022/05/20 05:49:24;;;;;;;9.55;8.30;;;;;19.10;101977.00;;;;5085980;28;20290;-79
2022/05/20 05:51:53;;;;;;;10.50;9.30;;;;;19.20;101975.00;;;;5074168;28;20243;-80
2022/05/20 05:54:20;;;;;;;10.00;9.00;;;;;19.30;101972.00;;;;5085330;28;20746;-79
2022/05/20 05:56:47;;;;;;;11.27;9.32;;;;;19.30;101972.00;;;;5076181;28;20228;-77
2022/05/20 05:59:15;;;;;;;10.20;9.20;;;;;19.40;101969.00;;;;5081225;28;20229;-77
2022/05/20 06:01:42;;;;;;;11.07;9.65;;;;;19.50;101968.00;;;;5075285;28;20564;-80
2022/05/20 06:04:10;;;;;;;10.30;9.20;;;;;19.50;101962.00;;;;5081419;28;20198;-79
2022/05/20 06:06:38;;;;;;;11.00;9.70;;;;;19.70;101962.00;;;;5079988;28;20198;-80
2022/05/20 06:09:05;;;;;;;11.13;10.02;;;;;19.70;101961.00;;;;5083634;28;20279;-81
2022/05/20 06:11:32;;;;;;;11.40;9.57;;;;;19.80;101966.00;;;;5087748;28;20198;-80
2022/05/20 06:13:59;;;;;;;10.90;9.27;;;;;19.90;101959.00;;;;5072946;28;20209;-80
2022/05/20 06:16:27;;;;;;;11.38;9.05;;;;;20.00;101963.00;;;;5084681;28;20198;-79
2022/05/20 06:18:57;;;;;;;9.93;8.82;;;;;20.10;101954.00;;;;5089609;28;20229;-79
2022/05/20 06:21:26;;;;;;;9.57;8.57;;;;;20.20;101953.00;;;;5078618;28;20203;-79
2022/05/20 06:23:53;;;;;;;11.00;8.52;;;;;20.30;101959.00;;;;5069755;28;20203;-79
2022/05/20 06:26:21;;;;;;;12.65;8.43;;;;;20.40;101952.00;;;;5083414;28;20336;-80
2022/05/20 06:28:48;;;;;;;9.15;7.60;;;;;20.60;101959.00;;;;5090066;28;20202;-80
2022/05/20 06:31:16;;;;;;;10.02;8.70;;;;;20.60;101953.00;;;;5089624;28;20559;-80
2022/05/20 06:33:43;;;;;;;9.13;7.90;;;;;20.70;101951.00;;;;5089414;28;20263;-80
2022/05/20 06:41:43;;;;;;;11.07;7.47;;;;;21.10;101936.00;;;;5034600;28;20625;-80
2022/05/20 06:44:10;;;;;;;8.20;7.38;;;;;21.20;101945.00;;;;5080432;28;20195;-80
2022/05/20 06:46:38;;;;;;;10.43;7.15;;;;;21.30;101948.00;;;;5083923;28;20676;-80
2022/05/20 06:49:06;;;;;;;9.70;6.32;;;;;21.40;101935.00;;;;5080132;28;20201;-79
2022/05/20 06:51:35;;;;;;;10.27;7.65;;;;;21.50;101928.00;;;;5088887;28;20217;-79
2022/05/20 06:54:06;;;;;;;9.90;6.55;;;;;21.60;101932.00;;;;5086770;28;20202;-80
2022/05/20 06:56:34;;;;;;;12.63;6.18;;;;;21.70;101934.00;;;;5087399;28;20237;-79
2022/05/20 06:59:04;;;;;;;7.57;6.20;;;;;21.70;101931.00;;;;5088722;28;20282;-79
2022/05/20 07:01:31;;;;;;;7.60;5.88;;;;;21.90;101935.00;;;;5083686;28;20202;-80
2022/05/20 07:03:59;;;;;;;8.45;6.80;;;;;22.00;101933.00;;;;5087764;28;20210;-78
2022/05/20 07:06:30;;;;;;;7.78;5.45;;;;;22.10;101921.00;;;;5079584;28;20252;-78
2022/05/20 07:08:57;;;;;;;5.72;4.95;;;;;22.20;101919.00;;;;5086191;28;20198;-78
2022/05/20 07:11:26;;;;;;;6.50;4.97;;;;;22.30;101925.00;;;;5088809;28;20194;-78
2022/05/20 07:13:56;;;;;;;5.72;4.78;;;;;22.40;101918.00;;;;5073246;28;20202;-79
2022/05/20 07:16:24;;;;;;;5.20;4.70;;;;;22.50;101917.00;;;;5081631;28;20200;-77
2022/05/20 07:18:51;;;;;;;7.03;4.45;;;;;22.60;101910.00;;;;5077381;28;20218;-78
2022/05/20 07:21:18;;;;;;;6.13;4.90;;;;;22.60;101902.00;;;;5068543;28;20626;-77
2022/05/20 07:23:46;;;;;;;4.72;4.32;;;;;22.80;101902.00;;;;5086856;28;20833;-78
2022/05/20 07:26:16;;;;;;;6.97;5.13;;;;;22.90;101898.00;;;;5083042;28;20206;-77
2022/05/20 07:28:45;;;;;;;5.07;4.15;;;;;23.00;101901.00;;;;5086970;28;20280;-78
2022/05/20 07:31:14;;;;;;;5.65;4.40;;;;;23.10;101898.00;;;;5089098;28;20236;-78
2022/05/20 07:33:43;;;;;;;5.63;4.07;;;;;23.20;101909.00;;;;5087945;28;20209;-78
2022/05/20 07:36:10;;;;;;;7.57;4.07;;;;;23.30;101904.00;;;;5086059;28;20198;-78
2022/05/20 07:38:37;;;;;;;6.90;4.13;;;;;23.40;101901.00;;;;5078807;28;20191;-79
2022/05/20 07:41:05;;;;;;;4.97;3.50;;;;;23.50;101900.00;;;;5073778;28;20276;-79
2022/05/20 07:43:33;;;;;;;6.07;3.88;;;;;23.70;101889.00;;;;5077354;28;20213;-79
2022/05/20 07:46:02;;;;;;;5.88;4.28;;;;;23.80;101881.00;;;;5082713;28;20290;-78
2022/05/20 07:48:30;;;;;;;4.30;3.72;;;;;23.90;101874.00;;;;5070493;28;20648;-78
2022/05/20 07:51:00;;;;;;;5.30;3.78;;;;;24.00;101864.00;;;;5083551;28;20210;-79
2022/05/20 07:53:35;;;;;;;5.55;3.67;;;;;24.10;101862.00;;;;5088180;28;20210;-79
2022/05/20 07:56:06;;;;;;;5.93;3.53;;;;;24.20;101857.00;;;;5086845;28;20214;-78
2022/05/20 07:58:38;;;;;;;3.63;3.03;;;;;24.30;101852.00;;;;5087110;28;20218;-79
2022/05/20 08:01:06;;;;;;;5.68;3.20;;;;;24.40;101854.00;;;;5074168;28;20223;-79
2022/05/20 08:06:21;;;;;;;4.07;2.60;;;;;24.50;101849.00;;;;5070246;28;20792;-79
2022/05/20 08:08:48;;;;;;;4.53;2.83;;;;;24.60;101848.00;;;;5072557;28;20202;-80
2022/05/20 08:11:16;;;;;;;2.85;2.55;;;;;24.60;101839.00;;;;5076466;28;20202;-79
2022/05/20 08:13:43;;;;;;;3.75;2.30;;;;;24.60;101832.00;;;;5077244;28;20313;-79
2022/05/20 08:16:11;;;;;;;3.88;2.55;;;;;24.70;101830.00;;;;5080968;28;20199;-79
2022/05/20 08:18:39;;;;;;;3.08;2.75;;;;;24.80;101828.00;;;;5074921;28;20198;-79
2022/05/20 08:21:06;;;;;;;4.47;3.03;;;;;24.90;101823.00;;;;5077142;28;20252;-80
2022/05/20 08:23:34;;;;;;;3.33;2.38;;;;;25.00;101827.00;;;;5075819;28;20190;-80
2022/05/20 08:26:01;;;;;;;3.50;2.80;;;;;25.10;101823.00;;;;5076730;28;20575;-79
2022/05/20 08:28:28;;;;;;;4.93;2.90;;;;;25.20;101817.00;;;;5076540;28;20259;-79
2022/05/20 08:30:55;;;;;;;5.25;2.92;;;;;25.30;101808.00;;;;5074818;28;20206;-79
2022/05/20 08:33:24;;;;;;;4.15;2.72;;;;;25.40;101815.00;;;;5078645;28;20211;-79
2022/05/20 08:35:51;;;;;;;2.55;2.10;;;;;25.50;101817.00;;;;5079709;28;20210;-80
2022/05/20 08:38:21;;;;;;;5.20;2.58;;;;;25.70;101815.00;;;;5074785;28;20194;-80
2022/05/20 08:40:49;;;;;;;4.78;2.33;;;;;25.70;101806.00;;;;5079572;28;20307;-79
2022/05/20 08:43:19;;;;;;;3.35;2.63;;;;;25.90;101799.00;;;;5083500;28;20286;-79
2022/05/20 08:45:47;;;;;;;4.32;2.38;;;;;25.90;101798.00;;;;5076650;28;20582;-80
2022/05/20 08:48:16;;;;;;;5.85;3.00;;;;;26.00;101800.00;;;;5088632;28;20194;-81
2022/05/20 08:50:46;;;;;;;3.85;1.98;;;;;26.00;101782.00;;;;5089649;28;20217;-80
2022/05/20 08:53:18;;;;;;;2.03;1.83;;;;;26.20;101778.00;;;;5090860;28;20574;-80
2022/05/20 08:55:45;;;;;;;2.90;2.25;;;;;26.30;101771.00;;;;5085723;28;20214;-79
2022/05/20 08:58:17;;;;;;;3.85;2.30;;;;;26.30;101768.00;;;;5091275;28;20190;-79
2022/05/20 09:00:45;;;;;;;2.97;2.30;;;;;26.40;101753.00;;;;5099282;28;20210;-80
2022/05/20 09:03:12;;;;;;;2.65;1.63;;;;;26.50;101750.00;;;;5088294;28;20203;-80
2022/05/20 09:05:41;;;;;;;3.15;1.90;;;;;26.60;101737.00;;;;5077986;28;20205;-78
2022/05/20 09:08:22;;;;;;;2.50;1.80;;;;;26.60;101741.00;;;;5087156;28;20197;-79
2022/05/20 09:10:53;;;;;;;2.75;1.50;;;;;26.70;101726.00;;;;5078499;28;20216;-80
2022/05/20 09:13:23;;;;;;;4.82;1.77;;;;;26.80;101718.00;;;;5083871;28;20209;-80
2022/05/20 09:16:01;;;;;;;2.15;1.10;;;;;26.70;101714.00;;;;5090686;28;20199;-80
2022/05/20 09:18:36;;;;;;;1.70;1.42;;;;;26.80;101711.00;;;;5081735;28;20198;-79
2022/05/20 09:21:04;;;;;;;2.30;1.70;;;;;26.90;101702.00;;;;5083257;28;21228;-79
2022/05/20 09:23:33;;;;;;;2.35;1.65;;;;;26.90;101695.00;;;;5081680;28;20194;-80
2022/05/20 09:26:05;;;;;;;2.42;1.40;;;;;26.90;101705.00;;;;5073757;28;20198;-80
2022/05/20 09:28:39;;;;;;;4.50;1.77;;;;;26.90;101704.00;;;;5072875;28;20205;-81
2022/05/20 09:31:22;;;;;;;2.60;1.85;;;;;26.90;101700.00;;;;5081739;28;20626;-81
2022/05/20 09:33:53;;;;;;;2.70;1.67;;;;;26.90;101697.00;;;;5080769;28;20349;-79
2022/05/20 09:36:39;;;;;;;4.97;1.73;;;;;26.90;101705.00;;;;5083253;28;20198;-79
2022/05/20 09:39:16;;;;;;;1.92;1.60;;;;;27.00;101703.00;;;;5075837;28;20194;-79
2022/05/20 09:41:48;;;;;;;1.88;1.50;;;;;27.00;101703.00;;;;5082495;28;20229;-80
2022/05/20 09:44:19;;;;;;;2.88;1.67;;;;;27.10;101706.00;;;;5081710;28;20190;-79
2022/05/20 09:46:51;;;;;;;2.13;1.55;;;;;27.10;101701.00;;;;5089264;28;20665;-79
2022/05/20 09:49:24;;;;;;;2.60;2.25;;;;;27.10;101703.00;;;;5088088;28;20281;-79
2022/05/20 09:51:55;;;;;;;3.33;1.23;;;;;27.10;101688.00;;;;5075490;28;20290;-80
2022/05/20 09:54:30;;;;;;;2.30;1.50;;;;;27.10;101677.00;;;;5086322;28;20248;-80
2022/05/20 09:57:07;;;;;;;2.50;1.65;;;;;27.10;101676.00;;;;5089934;28;20228;-79
2022/05/20 09:59:47;;;;;;;6.38;1.77;;;;;27.10;101667.00;;;;5081462;28;20198;-80
2022/05/20 10:02:23;;;;;;;4.05;1.80;;;;;27.10;101664.00;;;;5080554;28;20191;-80
2022/05/20 10:05:03;;;;;;;1.98;1.60;;;;;27.10;101642.00;;;;5083573;28;20206;-78
2022/05/20 10:07:40;;;;;;;5.10;2.38;;;;;27.20;101631.00;;;;5075035;28;20656;-79
2022/05/20 10:10:15;;;;;;;3.80;2.35;;;;;27.30;101621.00;;;;5083233;28;20310;-80
2022/05/20 10:12:49;;;;;;;3.65;2.38;;;;;27.30;101609.00;;;;5089816;28;20285;-80
2022/05/20 10:15:21;;;;;;;7.28;2.67;;;;;27.40;101602.00;;;;5090224;28;20262;-80
2022/05/20 10:18:03;;;;;;;4.10;2.15;;;;;27.50;101589.00;;;;5085336;28;20206;-79
2022/05/20 10:20:35;;;;;;;4.95;2.55;;;;;27.60;101585.00;;;;5085450;28;20259;-80
2022/05/20 10:23:12;;;;;;;1.70;1.60;;;;;27.60;101579.00;;;;5087862;28;20235;-79
2022/05/20 10:25:48;;;;;;;3.35;1.58;;;;;27.60;101583.00;;;;5089517;28;20210;-79
2022/05/20 10:34:03;;;;;;;3.00;1.27;;;;;27.60;101552.00;;;;5054199;28;20217;-78
2022/05/20 10:36:40;;;;;;;3.42;1.85;;;;;27.50;101548.00;;;;5090768;28;20209;-79
2022/05/20 10:39:22;;;;;;;5.70;1.90;;;;;27.50;101536.00;;;;5095711;28;20292;-80
2022/05/20 10:42:04;;;;;;;4.45;2.45;;;;;27.50;101530.00;;;;5078506;28;20233;-79
2022/05/20 10:50:36;;;;;;;8.10;2.15;;;;;27.60;101509.00;;;;5079361;28;20213;-79
2022/05/20 10:53:10;;;;;;;2.25;1.50;;;;;27.50;101491.00;;;;5068375;28;20680;-79
2022/05/20 10:55:48;;;;;;;3.95;1.63;;;;;27.50;101468.00;;;;5069028;28;20289;-79
2022/05/20 10:58:55;;;;;;;5.05;2.33;;;;;27.40;101460.00;;;;5078818;28;20194;-79
2022/05/20 11:01:34;;;;;;;7.25;2.35;;;;;27.50;101448.00;;;;5083893;28;20783;-80
2022/05/20 11:04:37;;;;;;;3.60;2.28;;;;;27.40;101428.00;;;;5089257;28;20228;-79
2022/05/20 11:07:32;;;;;;;3.55;1.80;;;;;27.40;101423.00;;;;5027345;28;20264;-79
2022/05/20 11:10:24;;;;;;;4.43;3.00;;;;;27.40;101423.00;;;;5081783;28;20210;-80
2022/05/20 11:13:01;;;;;;;3.55;2.55;;;;;27.40;101415.00;;;;5088532;28;20194;-79
2022/05/20 11:15:59;;;;;;;4.85;2.45;;;;;27.30;101415.00;;;;5089249;28;20197;-79
2022/05/20 11:18:49;;;;;;;4.38;2.65;;;;;27.30;101398.00;;;;5071095;28;20247;-79
2022/05/20 11:21:32;;;;;;;3.88;2.58;;;;;27.30;101396.00;;;;5088374;28;20275;-79
2022/05/20 11:24:14;;;;;;;4.82;3.05;;;;;27.30;101387.00;;;;5088144;28;20206;-80
2022/05/20 11:26:57;;;;;;;5.03;3.38;;;;;27.30;101369.00;;;;5081304;28;20195;-79
2022/05/20 11:29:48;;;;;;;5.45;2.95;;;;;27.20;101362.00;;;;5076173;28;20298;-79
2022/05/20 11:32:27;;;;;;;3.00;2.70;;;;;27.20;101351.00;;;;5075066;28;20194;-80
2022/05/20 11:35:11;;;;;;;3.60;2.47;;;;;27.10;101342.00;;;;5086203;28;20210;-79
2022/05/20 11:38:02;;;;;;;3.75;2.42;;;;;27.10;101334.00;;;;5085648;28;20210;-80
2022/05/20 11:40:43;;;;;;;3.38;2.40;;;;;27.10;101323.00;;;;5086821;28;20218;-79
2022/05/20 11:43:46;;;;;;;4.13;2.42;;;;;27.00;101315.00;;;;5085049;28;20206;-80
2022/05/20 11:46:28;;;;;;;2.60;2.00;;;;;27.10;101312.00;;;;5068282;28;20241;-80
2022/05/20 11:49:12;;;;;;;3.88;2.88;;;;;27.10;101306.00;;;;5087047;28;20206;-79
2022/05/20 11:51:52;;;;;;;4.10;2.55;;;;;27.10;101305.00;;;;5078733;28;20226;-79
2022/05/20 11:54:25;;;;;;;6.20;2.78;;;;;27.10;101297.00;;;;5067914;28;20325;-79
2022/05/20 11:56:58;;;;;;;3.30;2.60;;;;;27.10;101308.00;;;;5073688;28;20248;-82
2022/05/20 11:59:32;;;;;;;5.82;2.90;;;;;27.10;101309.00;;;;5081235;28;20187;-81
2022/05/20 12:02:02;;;;;;;5.45;3.92;;;;;27.10;101288.00;;;;5081996;28;20722;-82
2022/05/20 12:04:33;;;;;;;5.40;3.55;;;;;27.00;101262.00;;;;5080511;28;20203;-84
2022/05/20 12:07:05;;;;;;;4.20;3.25;;;;;27.00;101245.00;;;;5075604;28;20207;-82
2022/05/20 12:09:36;;;;;;;4.65;3.50;;;;;26.90;101234.00;;;;5081058;28;20194;-83
2022/05/20 12:12:15;;;;;;;5.20;3.45;;;;;26.70;101222.00;;;;5090203;28;20195;-81
2022/05/20 12:15:02;;;;;;;4.82;3.70;;;;;26.60;101213.00;;;;5088834;28;20194;-82
2022/05/20 12:17:34;;;;;;;3.33;2.80;;;;;26.60;101212.00;;;;5091421;28;20277;-82
2022/05/20 12:26:26;;;;;;;7.00;3.47;;;;;26.30;101217.00;;;;5090608;28;20626;-83
2022/05/20 12:28:53;;;;;;;6.75;4.00;;;;;26.30;101239.00;;;;5087439;28;20194;-81
2022/05/20 12:31:39;;;;;;;6.22;4.10;;;;;26.20;101230.00;;;;5090386;28;20213;-80
2022/05/20 12:34:10;;;;;;;5.10;3.70;;;;;26.10;101240.00;;;;5074720;28;20216;-80
2022/05/20 12:36:40;;;;;;;6.70;3.63;;;;;26.00;101262.00;;;;5090410;28;20228;-82
2022/05/20 12:39:46;;;;;;;7.38;4.47;;;;;25.70;101235.00;;;;5089712;28;20587;-83
2022/05/20 12:42:26;;;;;;;5.57;3.47;;;;;25.70;101237.00;;;;5086989;28;20600;-81
2022/05/20 12:44:54;;;;;;;5.53;3.80;;;;;25.60;101246.00;;;;5092987;28;20190;-82
2022/05/20 12:47:31;;;;;;;8.52;3.78;;;;;25.40;101271.00;;;;5081102;28;20214;-82
2022/05/20 12:50:06;;;;;;;10.50;3.83;;;;;25.30;101277.00;;;;5084878;28;20201;-81
2022/05/20 12:52:44;;;;;;;4.82;3.92;;;;;25.30;101294.00;;;;5083673;28;20193;-81
2022/05/20 12:55:20;;;;;;;5.32;3.75;;;;;25.10;101316.00;;;;5086130;28;20205;-80
2022/05/20 12:57:54;;;;;;;6.10;3.85;;;;;25.00;101301.00;;;;5087011;28;20225;-80
2022/05/20 13:00:40;;;;;;;7.60;3.63;;;;;24.80;101297.00;;;;5078031;28;20307;-80
2022/05/20 13:03:14;;;;;;;8.55;4.13;;;;;24.80;101290.00;;;;5078853;28;20250;-82
2022/05/20 13:05:49;;;;;;;6.60;3.75;;;;;24.60;101263.00;;;;5089070;28;20197;-79
2022/05/20 13:08:22;;;;;;;4.97;3.65;;;;;24.60;101233.00;;;;5085929;28;20204;-81
2022/05/20 13:10:51;;;;;;;6.82;4.28;;;;;24.60;101227.00;;;;5080544;28;20198;-81